San Angelo's Hourly Summary for Tuesday, May 15, 2018
Hour Temp
(f)
RH
(%)
Solar Rad.
(MJ/m2)
Rainfall
(in)
Wind
(mph)
5/15/2018 12:00 AM 68 69 0 0 6.99
5/15/2018 1:00 AM 67 73 0 0 4.44
5/15/2018 2:00 AM 67 72 0 0 4.28
5/15/2018 3:00 AM 66 76 0 0 4.77
5/15/2018 4:00 AM 67 75 0 0 7.29
5/15/2018 5:00 AM 68 77 0 0 5.18
5/15/2018 6:00 AM 69 79 0 0 5.98
5/15/2018 7:00 AM 68 82 0.01 0 3.79
5/15/2018 8:00 AM 69 86 0.32 0 2.88
5/15/2018 9:00 AM 72 82 0.79 0 7.2
5/15/2018 10:00 AM 75 71 1.58 0 8.17
5/15/2018 11:00 AM 79 62 2.37 0 8.72
5/15/2018 12:00 PM 82 53 2.75 0 7.47
5/15/2018 1:00 PM 85 48 3.18 0 3.56
5/15/2018 2:00 PM 87 43 3.26 0 3.58
5/15/2018 3:00 PM 89 39 3.2 0 4.54
5/15/2018 4:00 PM 91 38 2.84 0 5.21
5/15/2018 5:00 PM 92 36 2.36 0 6.2
5/15/2018 6:00 PM 90 37 0.25 0 7.1
5/15/2018 7:00 PM 81 43 0.01 0.31 12.33
5/15/2018 8:00 PM 69 64 0.45 0.09 16.04
5/15/2018 9:00 PM 70 61 0.04 0 8.91
5/15/2018 10:00 PM 69 68 0 0 4.73
5/15/2018 11:00 PM 69 65 0 0 5.02
Data Summary 75 62 23.41 0.40 6.43